LTAT

Malatya Erhaç Airport

Airport
ICAO code
LTAT
IATA Code
MLX
Summary
ICAO Region
EUR
ICAO Territory
Location

Malatya,

Serving
Malatya
Elevation
2828 ft
Coordinates
38° 26' 22" N , 38° 6' 18" E
Metar
LTAT 201550Z 23015G25KT 9999 SCT040 BKN100 21/07 Q1010 NOSIG

Runways

Designator Length Width Surface Rops
3/21 3350 45 ASP No/No

Airport map

Aerial View

SKYbrary Partners:

Safety knowledge contributed by: